sensor_id;sensor_type;location;lat;lon;timestamp;P1;durP1;ratioP1;P2;durP2;ratioP2
14613;SDS011;7393;51.446;6.800;2023-07-31T00:01:07;11.20;;;4.47;;
14613;SDS011;7393;51.446;6.800;2023-07-31T00:03:34;7.57;;;4.60;;
14613;SDS011;7393;51.446;6.800;2023-07-31T00:06:01;9.57;;;4.00;;
14613;SDS011;7393;51.446;6.800;2023-07-31T00:08:28;7.73;;;4.00;;
14613;SDS011;7393;51.446;6.800;2023-07-31T00:10:54;9.13;;;3.90;;
14613;SDS011;7393;51.446;6.800;2023-07-31T00:13:23;9.87;;;4.47;;
14613;SDS011;7393;51.446;6.800;2023-07-31T00:15:49;8.80;;;3.83;;
14613;SDS011;7393;51.446;6.800;2023-07-31T00:18:16;8.97;;;4.00;;
14613;SDS011;7393;51.446;6.800;2023-07-31T00:20:43;10.43;;;4.03;;
14613;SDS011;7393;51.446;6.800;2023-07-31T00:23:10;10.40;;;4.13;;
14613;SDS011;7393;51.446;6.800;2023-07-31T00:25:37;9.10;;;4.17;;
14613;SDS011;7393;51.446;6.800;2023-07-31T00:28:03;9.57;;;4.07;;
14613;SDS011;7393;51.446;6.800;2023-07-31T00:30:32;8.60;;;4.07;;
14613;SDS011;7393;51.446;6.800;2023-07-31T00:32:58;8.53;;;3.87;;
14613;SDS011;7393;51.446;6.800;2023-07-31T00:35:25;10.27;;;3.87;;
14613;SDS011;7393;51.446;6.800;2023-07-31T00:37:52;8.93;;;4.00;;
14613;SDS011;7393;51.446;6.800;2023-07-31T00:40:19;11.80;;;4.27;;
14613;SDS011;7393;51.446;6.800;2023-07-31T00:42:46;10.87;;;4.53;;
14613;SDS011;7393;51.446;6.800;2023-07-31T00:45:12;7.83;;;4.27;;
14613;SDS011;7393;51.446;6.800;2023-07-31T00:47:41;13.87;;;4.23;;
14613;SDS011;7393;51.446;6.800;2023-07-31T00:50:08;8.23;;;4.10;;
14613;SDS011;7393;51.446;6.800;2023-07-31T00:52:35;12.17;;;4.20;;
14613;SDS011;7393;51.446;6.800;2023-07-31T00:55:02;11.17;;;4.10;;
14613;SDS011;7393;51.446;6.800;2023-07-31T00:57:30;8.83;;;3.93;;
14613;SDS011;7393;51.446;6.800;2023-07-31T00:59:58;9.93;;;4.50;;
14613;SDS011;7393;51.446;6.800;2023-07-31T01:02:25;9.70;;;4.37;;
14613;SDS011;7393;51.446;6.800;2023-07-31T01:04:54;11.30;;;4.13;;
14613;SDS011;7393;51.446;6.800;2023-07-31T01:07:22;8.43;;;3.97;;
14613;SDS011;7393;51.446;6.800;2023-07-31T01:09:57;11.00;;;4.20;;
14613;SDS011;7393;51.446;6.800;2023-07-31T01:12:30;8.83;;;4.03;;
14613;SDS011;7393;51.446;6.800;2023-07-31T01:15:04;10.83;;;4.40;;
14613;SDS011;7393;51.446;6.800;2023-07-31T01:17:35;8.40;;;3.57;;
14613;SDS011;7393;51.446;6.800;2023-07-31T01:20:05;8.13;;;3.80;;
14613;SDS011;7393;51.446;6.800;2023-07-31T01:22:39;11.63;;;4.07;;
14613;SDS011;7393;51.446;6.800;2023-07-31T01:25:31;13.40;;;4.20;;
14613;SDS011;7393;51.446;6.800;2023-07-31T01:28:19;12.53;;;4.40;;
14613;SDS011;7393;51.446;6.800;2023-07-31T01:30:51;8.97;;;4.10;;
14613;SDS011;7393;51.446;6.800;2023-07-31T01:33:21;11.23;;;4.00;;
14613;SDS011;7393;51.446;6.800;2023-07-31T01:35:48;14.17;;;4.00;;
14613;SDS011;7393;51.446;6.800;2023-07-31T01:38:20;12.07;;;3.80;;
14613;SDS011;7393;51.446;6.800;2023-07-31T01:40:51;7.40;;;3.37;;
14613;SDS011;7393;51.446;6.800;2023-07-31T01:43:19;7.57;;;4.00;;
14613;SDS011;7393;51.446;6.800;2023-07-31T01:45:46;9.03;;;3.80;;
14613;SDS011;7393;51.446;6.800;2023-07-31T01:48:12;11.77;;;3.93;;
14613;SDS011;7393;51.446;6.800;2023-07-31T01:50:39;9.97;;;3.80;;
14613;SDS011;7393;51.446;6.800;2023-07-31T01:53:06;6.93;;;3.50;;
14613;SDS011;7393;51.446;6.800;2023-07-31T01:55:33;8.90;;;3.67;;
14613;SDS011;7393;51.446;6.800;2023-07-31T01:58:01;9.50;;;3.90;;
14613;SDS011;7393;51.446;6.800;2023-07-31T02:00:28;8.77;;;3.90;;
14613;SDS011;7393;51.446;6.800;2023-07-31T02:02:54;7.90;;;3.87;;
14613;SDS011;7393;51.446;6.800;2023-07-31T02:05:21;8.43;;;4.00;;
14613;SDS011;7393;51.446;6.800;2023-07-31T02:07:48;6.70;;;3.53;;
14613;SDS011;7393;51.446;6.800;2023-07-31T02:10:15;9.33;;;3.97;;
14613;SDS011;7393;51.446;6.800;2023-07-31T02:12:42;10.33;;;3.97;;
14613;SDS011;7393;51.446;6.800;2023-07-31T02:15:10;10.03;;;3.53;;
14613;SDS011;7393;51.446;6.800;2023-07-31T02:17:37;6.93;;;3.63;;
14613;SDS011;7393;51.446;6.800;2023-07-31T02:20:04;8.53;;;3.97;;
14613;SDS011;7393;51.446;6.800;2023-07-31T02:22:32;10.20;;;3.77;;
14613;SDS011;7393;51.446;6.800;2023-07-31T02:24:59;8.33;;;3.97;;
14613;SDS011;7393;51.446;6.800;2023-07-31T02:27:25;10.97;;;3.60;;
14613;SDS011;7393;51.446;6.800;2023-07-31T02:29:52;11.63;;;4.00;;
14613;SDS011;7393;51.446;6.800;2023-07-31T02:32:21;11.27;;;4.00;;
14613;SDS011;7393;51.446;6.800;2023-07-31T02:34:48;9.30;;;4.10;;
14613;SDS011;7393;51.446;6.800;2023-07-31T02:37:15;11.23;;;4.00;;
14613;SDS011;7393;51.446;6.800;2023-07-31T02:39:42;6.40;;;3.70;;
14613;SDS011;7393;51.446;6.800;2023-07-31T02:42:08;10.00;;;3.90;;
14613;SDS011;7393;51.446;6.800;2023-07-31T02:44:35;12.13;;;4.10;;
14613;SDS011;7393;51.446;6.800;2023-07-31T02:47:02;8.77;;;3.80;;
14613;SDS011;7393;51.446;6.800;2023-07-31T02:49:31;8.00;;;3.80;;
14613;SDS011;7393;51.446;6.800;2023-07-31T02:51:57;6.87;;;3.63;;
14613;SDS011;7393;51.446;6.800;2023-07-31T02:54:24;11.80;;;4.40;;
14613;SDS011;7393;51.446;6.800;2023-07-31T02:56:51;9.40;;;3.80;;
14613;SDS011;7393;51.446;6.800;2023-07-31T02:59:18;12.67;;;4.30;;
14613;SDS011;7393;51.446;6.800;2023-07-31T03:01:45;6.20;;;3.83;;
14613;SDS011;7393;51.446;6.800;2023-07-31T03:04:11;10.60;;;4.40;;
14613;SDS011;7393;51.446;6.800;2023-07-31T03:06:40;10.37;;;4.33;;
14613;SDS011;7393;51.446;6.800;2023-07-31T03:09:06;11.90;;;4.17;;
14613;SDS011;7393;51.446;6.800;2023-07-31T03:11:33;10.50;;;3.80;;
14613;SDS011;7393;51.446;6.800;2023-07-31T03:14:00;12.77;;;4.67;;
14613;SDS011;7393;51.446;6.800;2023-07-31T03:16:27;8.07;;;4.00;;
14613;SDS011;7393;51.446;6.800;2023-07-31T03:18:54;8.37;;;4.17;;
14613;SDS011;7393;51.446;6.800;2023-07-31T03:21:21;9.97;;;3.63;;
14613;SDS011;7393;51.446;6.800;2023-07-31T03:23:49;8.33;;;3.90;;
14613;SDS011;7393;51.446;6.800;2023-07-31T03:26:16;9.47;;;4.00;;
14613;SDS011;7393;51.446;6.800;2023-07-31T03:28:42;9.83;;;4.30;;
14613;SDS011;7393;51.446;6.800;2023-07-31T03:31:09;16.03;;;4.47;;
14613;SDS011;7393;51.446;6.800;2023-07-31T03:33:36;11.87;;;4.10;;
14613;SDS011;7393;51.446;6.800;2023-07-31T03:36:04;7.40;;;3.57;;
14613;SDS011;7393;51.446;6.800;2023-07-31T03:38:31;7.67;;;4.00;;
14613;SDS011;7393;51.446;6.800;2023-07-31T03:40:59;7.70;;;3.77;;
14613;SDS011;7393;51.446;6.800;2023-07-31T03:43:27;9.70;;;3.83;;
14613;SDS011;7393;51.446;6.800;2023-07-31T03:45:54;9.97;;;3.80;;
14613;SDS011;7393;51.446;6.800;2023-07-31T03:48:21;7.77;;;4.00;;
14613;SDS011;7393;51.446;6.800;2023-07-31T03:50:48;9.80;;;3.93;;
14613;SDS011;7393;51.446;6.800;2023-07-31T03:53:14;9.50;;;3.93;;
14613;SDS011;7393;51.446;6.800;2023-07-31T03:55:41;13.30;;;4.30;;
14613;SDS011;7393;51.446;6.800;2023-07-31T03:58:09;10.20;;;4.13;;
14613;SDS011;7393;51.446;6.800;2023-07-31T04:00:36;9.57;;;4.00;;
14613;SDS011;7393;51.446;6.800;2023-07-31T04:03:03;8.53;;;4.40;;
14613;SDS011;7393;51.446;6.800;2023-07-31T04:05:31;10.20;;;3.87;;
14613;SDS011;7393;51.446;6.800;2023-07-31T04:07:58;9.77;;;4.10;;
14613;SDS011;7393;51.446;6.800;2023-07-31T04:10:25;12.27;;;3.90;;
14613;SDS011;7393;51.446;6.800;2023-07-31T04:12:52;9.97;;;4.00;;
14613;SDS011;7393;51.446;6.800;2023-07-31T04:15:20;10.20;;;4.07;;
14613;SDS011;7393;51.446;6.800;2023-07-31T04:17:46;8.47;;;4.10;;
14613;SDS011;7393;51.446;6.800;2023-07-31T04:20:13;7.33;;;3.77;;
14613;SDS011;7393;51.446;6.800;2023-07-31T04:22:40;8.17;;;3.80;;
14613;SDS011;7393;51.446;6.800;2023-07-31T04:25:07;7.90;;;3.73;;
14613;SDS011;7393;51.446;6.800;2023-07-31T04:27:34;8.57;;;4.23;;
14613;SDS011;7393;51.446;6.800;2023-07-31T04:30:01;10.20;;;3.53;;
14613;SDS011;7393;51.446;6.800;2023-07-31T04:32:30;10.53;;;4.23;;
14613;SDS011;7393;51.446;6.800;2023-07-31T04:34:56;8.37;;;4.10;;
14613;SDS011;7393;51.446;6.800;2023-07-31T04:37:23;9.23;;;4.33;;
14613;SDS011;7393;51.446;6.800;2023-07-31T04:39:50;9.27;;;3.93;;
14613;SDS011;7393;51.446;6.800;2023-07-31T04:42:17;8.53;;;4.37;;
14613;SDS011;7393;51.446;6.800;2023-07-31T04:44:44;10.03;;;4.23;;
14613;SDS011;7393;51.446;6.800;2023-07-31T04:47:10;8.90;;;4.33;;
14613;SDS011;7393;51.446;6.800;2023-07-31T04:49:39;9.13;;;4.20;;
14613;SDS011;7393;51.446;6.800;2023-07-31T04:52:05;8.23;;;4.20;;
14613;SDS011;7393;51.446;6.800;2023-07-31T04:54:32;10.17;;;4.67;;
14613;SDS011;7393;51.446;6.800;2023-07-31T04:56:59;9.17;;;4.57;;
14613;SDS011;7393;51.446;6.800;2023-07-31T04:59:26;8.87;;;4.80;;
14613;SDS011;7393;51.446;6.800;2023-07-31T05:01:53;10.63;;;4.97;;
14613;SDS011;7393;51.446;6.800;2023-07-31T05:04:20;14.00;;;4.70;;
14613;SDS011;7393;51.446;6.800;2023-07-31T05:06:48;11.20;;;5.10;;
14613;SDS011;7393;51.446;6.800;2023-07-31T05:09:15;10.23;;;5.37;;
14613;SDS011;7393;51.446;6.800;2023-07-31T05:11:43;9.17;;;4.47;;
14613;SDS011;7393;51.446;6.800;2023-07-31T05:14:10;11.97;;;5.07;;
14613;SDS011;7393;51.446;6.800;2023-07-31T05:16:36;11.97;;;4.40;;
14613;SDS011;7393;51.446;6.800;2023-07-31T05:19:03;7.60;;;4.30;;
14613;SDS011;7393;51.446;6.800;2023-07-31T05:21:30;7.50;;;4.73;;
14613;SDS011;7393;51.446;6.800;2023-07-31T05:23:58;15.37;;;4.80;;
14613;SDS011;7393;51.446;6.800;2023-07-31T05:26:25;9.17;;;4.20;;
14613;SDS011;7393;51.446;6.800;2023-07-31T05:28:52;10.27;;;4.73;;
14613;SDS011;7393;51.446;6.800;2023-07-31T05:31:18;12.87;;;4.80;;
14613;SDS011;7393;51.446;6.800;2023-07-31T05:33:45;7.30;;;4.50;;
14613;SDS011;7393;51.446;6.800;2023-07-31T05:36:12;9.57;;;5.00;;
14613;SDS011;7393;51.446;6.800;2023-07-31T05:38:39;7.83;;;4.47;;
14613;SDS011;7393;51.446;6.800;2023-07-31T05:41:08;9.30;;;4.90;;
14613;SDS011;7393;51.446;6.800;2023-07-31T05:43:35;9.23;;;4.70;;
14613;SDS011;7393;51.446;6.800;2023-07-31T05:46:02;10.20;;;5.23;;
14613;SDS011;7393;51.446;6.800;2023-07-31T05:48:28;9.07;;;5.30;;
14613;SDS011;7393;51.446;6.800;2023-07-31T05:50:55;10.50;;;4.53;;
14613;SDS011;7393;51.446;6.800;2023-07-31T05:53:22;15.03;;;5.43;;
14613;SDS011;7393;51.446;6.800;2023-07-31T05:55:49;12.73;;;5.50;;
14613;SDS011;7393;51.446;6.800;2023-07-31T05:58:17;8.80;;;4.60;;
14613;SDS011;7393;51.446;6.800;2023-07-31T06:00:44;8.13;;;5.13;;
14613;SDS011;7393;51.446;6.800;2023-07-31T06:03:11;11.03;;;5.03;;
14613;SDS011;7393;51.446;6.800;2023-07-31T06:05:38;10.33;;;5.00;;
14613;SDS011;7393;51.446;6.800;2023-07-31T06:08:04;9.83;;;5.17;;
14613;SDS011;7393;51.446;6.800;2023-07-31T06:10:31;9.53;;;4.70;;
14613;SDS011;7393;51.446;6.800;2023-07-31T06:12:59;12.13;;;5.30;;
14613;SDS011;7393;51.446;6.800;2023-07-31T06:15:28;7.97;;;4.93;;
14613;SDS011;7393;51.446;6.800;2023-07-31T06:17:55;11.10;;;5.37;;
14613;SDS011;7393;51.446;6.800;2023-07-31T06:20:22;12.80;;;5.50;;
14613;SDS011;7393;51.446;6.800;2023-07-31T06:22:49;9.83;;;5.17;;
14613;SDS011;7393;51.446;6.800;2023-07-31T06:25:16;11.27;;;5.70;;
14613;SDS011;7393;51.446;6.800;2023-07-31T06:27:43;12.27;;;6.17;;
14613;SDS011;7393;51.446;6.800;2023-07-31T06:30:10;11.60;;;6.37;;
14613;SDS011;7393;51.446;6.800;2023-07-31T06:32:39;13.13;;;7.00;;
14613;SDS011;7393;51.446;6.800;2023-07-31T06:35:06;8.43;;;5.40;;
14613;SDS011;7393;51.446;6.800;2023-07-31T06:37:33;12.97;;;6.57;;
14613;SDS011;7393;51.446;6.800;2023-07-31T06:40:00;10.07;;;6.30;;
14613;SDS011;7393;51.446;6.800;2023-07-31T06:42:27;10.77;;;6.30;;
14613;SDS011;7393;51.446;6.800;2023-07-31T06:44:54;11.57;;;6.10;;
14613;SDS011;7393;51.446;6.800;2023-07-31T06:47:20;10.33;;;5.70;;
14613;SDS011;7393;51.446;6.800;2023-07-31T06:49:49;9.93;;;6.00;;
14613;SDS011;7393;51.446;6.800;2023-07-31T06:52:15;8.33;;;5.87;;
14613;SDS011;7393;51.446;6.800;2023-07-31T06:54:42;12.57;;;6.77;;
14613;SDS011;7393;51.446;6.800;2023-07-31T06:57:09;11.93;;;6.20;;
14613;SDS011;7393;51.446;6.800;2023-07-31T06:59:36;9.97;;;5.90;;
14613;SDS011;7393;51.446;6.800;2023-07-31T07:02:03;10.50;;;6.20;;
14613;SDS011;7393;51.446;6.800;2023-07-31T07:04:30;9.33;;;4.90;;
14613;SDS011;7393;51.446;6.800;2023-07-31T07:06:59;11.50;;;4.83;;
14613;SDS011;7393;51.446;6.800;2023-07-31T07:09:25;12.20;;;5.40;;
14613;SDS011;7393;51.446;6.800;2023-07-31T07:11:52;11.47;;;5.87;;
14613;SDS011;7393;51.446;6.800;2023-07-31T07:14:19;11.13;;;5.20;;
14613;SDS011;7393;51.446;6.800;2023-07-31T07:16:50;9.93;;;5.03;;
14613;SDS011;7393;51.446;6.800;2023-07-31T07:19:17;9.50;;;4.77;;
14613;SDS011;7393;51.446;6.800;2023-07-31T07:21:44;10.03;;;4.67;;
14613;SDS011;7393;51.446;6.800;2023-07-31T07:24:12;9.17;;;4.37;;
14613;SDS011;7393;51.446;6.800;2023-07-31T07:26:38;7.67;;;4.77;;
14613;SDS011;7393;51.446;6.800;2023-07-31T07:29:05;7.03;;;4.60;;
14613;SDS011;7393;51.446;6.800;2023-07-31T07:31:33;9.73;;;4.90;;
14613;SDS011;7393;51.446;6.800;2023-07-31T07:33:59;9.70;;;5.57;;
14613;SDS011;7393;51.446;6.800;2023-07-31T07:36:27;10.73;;;6.63;;
14613;SDS011;7393;51.446;6.800;2023-07-31T07:38:54;10.17;;;5.77;;
14613;SDS011;7393;51.446;6.800;2023-07-31T07:41:23;11.40;;;6.60;;
14613;SDS011;7393;51.446;6.800;2023-07-31T07:43:49;11.50;;;6.50;;
14613;SDS011;7393;51.446;6.800;2023-07-31T07:46:17;13.07;;;6.23;;
14613;SDS011;7393;51.446;6.800;2023-07-31T07:48:43;8.80;;;4.87;;
14613;SDS011;7393;51.446;6.800;2023-07-31T07:51:10;9.70;;;5.37;;
14613;SDS011;7393;51.446;6.800;2023-07-31T07:53:37;8.03;;;5.00;;
14613;SDS011;7393;51.446;6.800;2023-07-31T07:56:04;7.10;;;4.50;;
14613;SDS011;7393;51.446;6.800;2023-07-31T07:58:32;6.60;;;4.07;;
14613;SDS011;7393;51.446;6.800;2023-07-31T08:00:59;5.13;;;3.57;;
14613;SDS011;7393;51.446;6.800;2023-07-31T08:03:25;8.53;;;4.10;;
14613;SDS011;7393;51.446;6.800;2023-07-31T08:05:52;7.07;;;3.87;;
14613;SDS011;7393;51.446;6.800;2023-07-31T08:08:23;6.57;;;4.23;;
14613;SDS011;7393;51.446;6.800;2023-07-31T08:10:50;8.17;;;4.03;;
14613;SDS011;7393;51.446;6.800;2023-07-31T08:13:17;7.20;;;4.23;;
14613;SDS011;7393;51.446;6.800;2023-07-31T08:15:45;6.07;;;4.27;;
14613;SDS011;7393;51.446;6.800;2023-07-31T08:18:12;7.87;;;4.60;;
14613;SDS011;7393;51.446;6.800;2023-07-31T08:20:38;5.80;;;4.17;;
14613;SDS011;7393;51.446;6.800;2023-07-31T08:23:05;4.67;;;3.57;;
14613;SDS011;7393;51.446;6.800;2023-07-31T08:25:34;7.47;;;4.43;;
14613;SDS011;7393;51.446;6.800;2023-07-31T08:28:01;10.40;;;5.20;;
14613;SDS011;7393;51.446;6.800;2023-07-31T08:30:28;9.47;;;4.60;;
14613;SDS011;7393;51.446;6.800;2023-07-31T08:32:56;7.80;;;4.70;;
14613;SDS011;7393;51.446;6.800;2023-07-31T08:35:23;6.20;;;4.70;;
14613;SDS011;7393;51.446;6.800;2023-07-31T08:37:50;9.10;;;5.30;;
14613;SDS011;7393;51.446;6.800;2023-07-31T08:40:17;7.30;;;4.47;;
14613;SDS011;7393;51.446;6.800;2023-07-31T08:42:44;7.27;;;4.20;;
14613;SDS011;7393;51.446;6.800;2023-07-31T08:45:13;7.70;;;4.30;;
14613;SDS011;7393;51.446;6.800;2023-07-31T08:47:42;6.50;;;4.10;;
14613;SDS011;7393;51.446;6.800;2023-07-31T08:50:12;5.10;;;3.10;;
14613;SDS011;7393;51.446;6.800;2023-07-31T08:52:40;7.37;;;3.50;;
14613;SDS011;7393;51.446;6.800;2023-07-31T08:55:07;5.30;;;3.30;;
14613;SDS011;7393;51.446;6.800;2023-07-31T08:57:35;4.97;;;3.23;;
14613;SDS011;7393;51.446;6.800;2023-07-31T09:00:03;6.10;;;4.00;;
14613;SDS011;7393;51.446;6.800;2023-07-31T09:02:34;8.03;;;4.33;;
14613;SDS011;7393;51.446;6.800;2023-07-31T09:05:06;6.37;;;3.60;;
14613;SDS011;7393;51.446;6.800;2023-07-31T09:07:35;5.87;;;3.20;;
14613;SDS011;7393;51.446;6.800;2023-07-31T09:10:02;6.37;;;3.23;;
14613;SDS011;7393;51.446;6.800;2023-07-31T09:12:29;6.60;;;3.93;;
14613;SDS011;7393;51.446;6.800;2023-07-31T09:14:56;6.70;;;3.90;;
14613;SDS011;7393;51.446;6.800;2023-07-31T09:17:29;8.87;;;5.40;;
14613;SDS011;7393;51.446;6.800;2023-07-31T09:19:57;7.77;;;5.03;;
14613;SDS011;7393;51.446;6.800;2023-07-31T09:22:31;10.60;;;5.77;;
14613;SDS011;7393;51.446;6.800;2023-07-31T09:25:05;6.83;;;4.47;;
14613;SDS011;7393;51.446;6.800;2023-07-31T09:27:45;8.13;;;4.13;;
14613;SDS011;7393;51.446;6.800;2023-07-31T09:30:13;6.93;;;4.00;;
14613;SDS011;7393;51.446;6.800;2023-07-31T09:32:40;8.27;;;5.03;;
14613;SDS011;7393;51.446;6.800;2023-07-31T09:35:16;8.80;;;5.10;;
14613;SDS011;7393;51.446;6.800;2023-07-31T09:37:48;8.83;;;5.23;;
14613;SDS011;7393;51.446;6.800;2023-07-31T09:40:26;8.80;;;5.33;;
14613;SDS011;7393;51.446;6.800;2023-07-31T09:42:58;8.27;;;5.00;;
14613;SDS011;7393;51.446;6.800;2023-07-31T09:45:26;9.50;;;5.33;;
14613;SDS011;7393;51.446;6.800;2023-07-31T09:47:53;8.10;;;5.73;;
14613;SDS011;7393;51.446;6.800;2023-07-31T09:50:20;11.70;;;5.10;;
14613;SDS011;7393;51.446;6.800;2023-07-31T09:52:48;7.60;;;5.13;;
14613;SDS011;7393;51.446;6.800;2023-07-31T09:55:15;8.27;;;5.27;;
14613;SDS011;7393;51.446;6.800;2023-07-31T09:57:44;8.27;;;5.03;;
14613;SDS011;7393;51.446;6.800;2023-07-31T10:00:13;8.63;;;5.10;;
14613;SDS011;7393;51.446;6.800;2023-07-31T10:02:41;8.77;;;5.10;;
14613;SDS011;7393;51.446;6.800;2023-07-31T10:05:12;7.93;;;4.50;;
14613;SDS011;7393;51.446;6.800;2023-07-31T10:07:41;7.10;;;4.53;;
14613;SDS011;7393;51.446;6.800;2023-07-31T10:10:11;6.57;;;4.70;;
14613;SDS011;7393;51.446;6.800;2023-07-31T10:12:40;6.23;;;4.40;;
14613;SDS011;7393;51.446;6.800;2023-07-31T10:15:09;7.10;;;3.60;;
14613;SDS011;7393;51.446;6.800;2023-07-31T10:17:37;4.70;;;3.47;;
14613;SDS011;7393;51.446;6.800;2023-07-31T10:20:04;5.73;;;3.60;;
14613;SDS011;7393;51.446;6.800;2023-07-31T10:22:33;7.17;;;3.40;;
14613;SDS011;7393;51.446;6.800;2023-07-31T10:25:00;6.37;;;3.30;;
14613;SDS011;7393;51.446;6.800;2023-07-31T10:27:28;5.03;;;4.13;;
14613;SDS011;7393;51.446;6.800;2023-07-31T10:29:55;5.80;;;3.43;;
14613;SDS011;7393;51.446;6.800;2023-07-31T10:32:26;4.27;;;3.47;;
14613;SDS011;7393;51.446;6.800;2023-07-31T10:34:53;4.67;;;3.30;;
14613;SDS011;7393;51.446;6.800;2023-07-31T10:37:22;5.47;;;3.17;;
14613;SDS011;7393;51.446;6.800;2023-07-31T10:39:58;4.83;;;3.10;;
14613;SDS011;7393;51.446;6.800;2023-07-31T10:42:32;5.27;;;3.10;;
14613;SDS011;7393;51.446;6.800;2023-07-31T10:45:01;4.83;;;2.90;;
14613;SDS011;7393;51.446;6.800;2023-07-31T10:47:31;3.57;;;2.83;;
14613;SDS011;7393;51.446;6.800;2023-07-31T10:50:13;7.17;;;3.20;;
14613;SDS011;7393;51.446;6.800;2023-07-31T10:52:44;4.57;;;2.97;;
14613;SDS011;7393;51.446;6.800;2023-07-31T10:55:13;4.13;;;2.90;;
14613;SDS011;7393;51.446;6.800;2023-07-31T10:57:54;5.10;;;3.13;;
14613;SDS011;7393;51.446;6.800;2023-07-31T11:00:22;4.33;;;2.87;;
14613;SDS011;7393;51.446;6.800;2023-07-31T11:03:00;7.83;;;3.30;;
14613;SDS011;7393;51.446;6.800;2023-07-31T11:05:44;8.10;;;3.13;;
14613;SDS011;7393;51.446;6.800;2023-07-31T11:08:19;5.60;;;3.37;;
14613;SDS011;7393;51.446;6.800;2023-07-31T11:10:47;4.00;;;2.87;;
14613;SDS011;7393;51.446;6.800;2023-07-31T11:13:15;6.10;;;3.17;;
14613;SDS011;7393;51.446;6.800;2023-07-31T11:15:42;4.93;;;3.20;;
14613;SDS011;7393;51.446;6.800;2023-07-31T11:18:10;4.73;;;2.50;;
14613;SDS011;7393;51.446;6.800;2023-07-31T11:20:37;5.80;;;3.10;;
14613;SDS011;7393;51.446;6.800;2023-07-31T11:23:08;5.40;;;3.40;;
14613;SDS011;7393;51.446;6.800;2023-07-31T11:25:36;4.63;;;3.03;;
14613;SDS011;7393;51.446;6.800;2023-07-31T11:28:05;5.73;;;2.80;;
14613;SDS011;7393;51.446;6.800;2023-07-31T11:30:33;4.10;;;2.80;;
14613;SDS011;7393;51.446;6.800;2023-07-31T11:33:01;6.90;;;3.13;;
14613;SDS011;7393;51.446;6.800;2023-07-31T11:35:31;5.33;;;3.50;;
14613;SDS011;7393;51.446;6.800;2023-07-31T11:37:58;5.50;;;3.00;;
14613;SDS011;7393;51.446;6.800;2023-07-31T11:40:26;5.53;;;2.97;;
14613;SDS011;7393;51.446;6.800;2023-07-31T11:42:54;4.57;;;3.03;;
14613;SDS011;7393;51.446;6.800;2023-07-31T11:45:24;5.03;;;3.43;;
14613;SDS011;7393;51.446;6.800;2023-07-31T11:47:51;3.97;;;2.60;;
14613;SDS011;7393;51.446;6.800;2023-07-31T11:50:19;3.83;;;2.90;;
14613;SDS011;7393;51.446;6.800;2023-07-31T11:52:48;5.13;;;2.60;;
14613;SDS011;7393;51.446;6.800;2023-07-31T11:55:18;3.60;;;2.37;;
14613;SDS011;7393;51.446;6.800;2023-07-31T11:57:45;4.13;;;2.60;;
14613;SDS011;7393;51.446;6.800;2023-07-31T12:00:13;4.37;;;2.70;;
14613;SDS011;7393;51.446;6.800;2023-07-31T12:02:41;4.53;;;2.70;;
14613;SDS011;7393;51.446;6.800;2023-07-31T12:05:10;4.33;;;2.60;;
14613;SDS011;7393;51.446;6.800;2023-07-31T12:07:45;3.17;;;2.77;;
14613;SDS011;7393;51.446;6.800;2023-07-31T12:10:23;3.77;;;2.50;;
14613;SDS011;7393;51.446;6.800;2023-07-31T12:13:02;5.47;;;2.90;;
14613;SDS011;7393;51.446;6.800;2023-07-31T12:15:37;3.60;;;2.37;;
14613;SDS011;7393;51.446;6.800;2023-07-31T12:18:05;3.73;;;2.63;;
14613;SDS011;7393;51.446;6.800;2023-07-31T12:20:33;3.30;;;2.67;;
14613;SDS011;7393;51.446;6.800;2023-07-31T12:23:01;4.13;;;3.00;;
14613;SDS011;7393;51.446;6.800;2023-07-31T12:25:30;3.57;;;2.60;;
14613;SDS011;7393;51.446;6.800;2023-07-31T12:28:03;3.70;;;2.70;;
14613;SDS011;7393;51.446;6.800;2023-07-31T12:30:32;3.87;;;2.50;;
14613;SDS011;7393;51.446;6.800;2023-07-31T12:33:02;3.50;;;2.57;;
14613;SDS011;7393;51.446;6.800;2023-07-31T12:35:34;2.67;;;2.20;;
14613;SDS011;7393;51.446;6.800;2023-07-31T12:38:02;4.13;;;2.50;;
14613;SDS011;7393;51.446;6.800;2023-07-31T12:40:30;4.60;;;2.50;;
14613;SDS011;7393;51.446;6.800;2023-07-31T12:42:57;3.03;;;2.00;;
14613;SDS011;7393;51.446;6.800;2023-07-31T12:45:24;3.30;;;2.20;;
14613;SDS011;7393;51.446;6.800;2023-07-31T12:47:51;3.33;;;1.93;;
14613;SDS011;7393;51.446;6.800;2023-07-31T12:50:17;3.80;;;2.30;;
14613;SDS011;7393;51.446;6.800;2023-07-31T12:52:44;2.83;;;2.00;;
14613;SDS011;7393;51.446;6.800;2023-07-31T12:55:11;3.47;;;1.93;;
14613;SDS011;7393;51.446;6.800;2023-07-31T12:57:40;4.03;;;2.20;;
14613;SDS011;7393;51.446;6.800;2023-07-31T13:00:08;3.70;;;2.23;;
14613;SDS011;7393;51.446;6.800;2023-07-31T13:02:35;4.53;;;2.30;;
14613;SDS011;7393;51.446;6.800;2023-07-31T13:05:02;3.87;;;2.53;;
14613;SDS011;7393;51.446;6.800;2023-07-31T13:07:29;4.17;;;3.10;;
14613;SDS011;7393;51.446;6.800;2023-07-31T13:09:56;4.50;;;2.73;;
14613;SDS011;7393;51.446;6.800;2023-07-31T13:12:23;4.03;;;3.03;;
14613;SDS011;7393;51.446;6.800;2023-07-31T13:14:51;4.23;;;2.73;;
14613;SDS011;7393;51.446;6.800;2023-07-31T13:17:18;3.47;;;2.67;;
14613;SDS011;7393;51.446;6.800;2023-07-31T13:19:45;4.60;;;3.17;;
14613;SDS011;7393;51.446;6.800;2023-07-31T13:22:11;4.10;;;2.87;;
14613;SDS011;7393;51.446;6.800;2023-07-31T13:24:38;4.60;;;3.40;;
14613;SDS011;7393;51.446;6.800;2023-07-31T13:27:05;5.77;;;3.27;;
14613;SDS011;7393;51.446;6.800;2023-07-31T13:29:32;4.93;;;3.40;;
14613;SDS011;7393;51.446;6.800;2023-07-31T13:32:00;5.13;;;3.67;;
14613;SDS011;7393;51.446;6.800;2023-07-31T13:34:27;5.33;;;3.57;;
14613;SDS011;7393;51.446;6.800;2023-07-31T13:36:53;5.07;;;3.30;;
14613;SDS011;7393;51.446;6.800;2023-07-31T13:39:21;5.40;;;3.80;;
14613;SDS011;7393;51.446;6.800;2023-07-31T13:41:48;7.80;;;3.70;;
14613;SDS011;7393;51.446;6.800;2023-07-31T13:44:15;7.10;;;4.57;;
14613;SDS011;7393;51.446;6.800;2023-07-31T13:46:41;5.03;;;3.63;;
14613;SDS011;7393;51.446;6.800;2023-07-31T13:49:09;7.40;;;3.37;;
14613;SDS011;7393;51.446;6.800;2023-07-31T13:51:36;5.27;;;3.50;;
14613;SDS011;7393;51.446;6.800;2023-07-31T13:54:04;4.33;;;2.97;;
14613;SDS011;7393;51.446;6.800;2023-07-31T13:56:32;6.37;;;3.13;;
14613;SDS011;7393;51.446;6.800;2023-07-31T13:58:59;5.60;;;3.30;;
14613;SDS011;7393;51.446;6.800;2023-07-31T14:01:26;9.90;;;4.10;;
14613;SDS011;7393;51.446;6.800;2023-07-31T14:03:53;5.80;;;3.70;;
14613;SDS011;7393;51.446;6.800;2023-07-31T14:06:21;7.00;;;4.13;;
14613;SDS011;7393;51.446;6.800;2023-07-31T14:08:48;7.27;;;3.70;;
14613;SDS011;7393;51.446;6.800;2023-07-31T14:11:15;9.10;;;3.60;;
14613;SDS011;7393;51.446;6.800;2023-07-31T14:13:42;7.13;;;3.77;;
14613;SDS011;7393;51.446;6.800;2023-07-31T14:16:09;8.80;;;3.60;;
14613;SDS011;7393;51.446;6.800;2023-07-31T14:18:35;10.30;;;4.43;;
14613;SDS011;7393;51.446;6.800;2023-07-31T14:21:02;8.20;;;4.00;;
14613;SDS011;7393;51.446;6.800;2023-07-31T14:23:30;7.57;;;4.00;;
14613;SDS011;7393;51.446;6.800;2023-07-31T14:25:57;7.03;;;4.30;;
14613;SDS011;7393;51.446;6.800;2023-07-31T14:28:24;4.23;;;3.30;;
14613;SDS011;7393;51.446;6.800;2023-07-31T14:30:51;5.87;;;3.40;;
14613;SDS011;7393;51.446;6.800;2023-07-31T14:33:18;5.63;;;3.33;;
14613;SDS011;7393;51.446;6.800;2023-07-31T14:35:45;5.37;;;3.23;;
14613;SDS011;7393;51.446;6.800;2023-07-31T14:38:11;5.73;;;3.60;;
14613;SDS011;7393;51.446;6.800;2023-07-31T14:40:40;4.87;;;3.30;;
14613;SDS011;7393;51.446;6.800;2023-07-31T14:43:07;6.57;;;3.40;;
14613;SDS011;7393;51.446;6.800;2023-07-31T14:45:34;5.33;;;3.53;;
14613;SDS011;7393;51.446;6.800;2023-07-31T14:48:01;6.10;;;3.10;;
14613;SDS011;7393;51.446;6.800;2023-07-31T14:50:27;5.93;;;3.53;;
14613;SDS011;7393;51.446;6.800;2023-07-31T14:52:54;3.97;;;3.00;;
14613;SDS011;7393;51.446;6.800;2023-07-31T14:55:21;5.60;;;3.50;;
14613;SDS011;7393;51.446;6.800;2023-07-31T14:57:49;6.87;;;3.50;;
14613;SDS011;7393;51.446;6.800;2023-07-31T15:00:16;5.43;;;3.53;;
14613;SDS011;7393;51.446;6.800;2023-07-31T15:02:43;4.57;;;3.30;;